Aérodrome :
LOGIN :

S'inscrire | Disclaimer

   EN    FR    IT 

 










Légende :    VFR   VFR Marginal   IFR   IFR Intensif   IFR Très Intensif
Visi : 
Plafond : 
>= 8 km
>= 3000ft
5 à 8 km
1000 à 3000 ft
1500m à 5 km
500 à 1000 ft
800 à 1500m
200 à 500 ft
< 800m
< 200 ft
Symboles :   Orages  Brouillard  Fortes neiges  Fortes précipitations  Vent > 20 kt
SIGMETs :   Divers  Orages  Givrage  Turbulence  Onde Orograph.  Cendres Volcan.






- Altitude de l'aérodrome : 0 ft


ETEB - Ansbach Army Heliport

DERNIER METAR :
  • 270156Z AUTO 19006KT 9999 CLR 14/13 A2999 RMK AO2 SLP154 T01390128 $

METARs EXPIRÉS :
  • 270056Z AUTO 20003KT 9999 CLR 15/13 A2999 RMK AO2 SLP154 T01470127 $
  • 262356Z AUTO 21005KT 9999 CLR 15/13 A3000 RMK AO2 SLP158 T01490133 10196 20146 51008 $

TAF TAF ETEB
Valide du 26 à 17h jusqu'au 27 à 23h UTC


261700Z 2617/2723 21006KT 8000 -SHRA SCT025 BKN035 BKN100 QNH2992INS
TEMPO 2617/2618 22015G25KT 4000 -TSRA BKN035CB
BECMG 2619/2620 25006KT 9999 NSW BKN025 QNH2995INS
BECMG 2705/2706 25006KT 9999 FEW030 QNH2992INS
BECMG 2711/2712 24006KT 9999 FEW030 BKN140 QNH2990INS TX24/2714Z TN14/2703Z LAST NO AMDS AFT 2624 NEXT 2709



MET'MAP, la Météo Aéronautique d'un coup d'oeil ! - Copyright ORBIFLY Décembre 2007 - Disclaimer

ORBIFLY MET'MAP TEAM :

Programmation & Développement : Alexandra Zaïnal
Sur une idée originale de : Baudouin d'Aumeries
Assistance à la programmation : Marc-Olivier Méhu
Soutien technique & logistique : Manuel Goepfert

Contact : metmap@orbifly.com




SOURCES & CREDITS :

   NOAA